Time;durP1;ratioP1;P1;durP2;ratioP2;P2;SDS_P1;SDS_P2;PMS_P1;PMS_P2;Temp;Humidity;BMP_temperature;BMP_pressure;BME280_temperature;BME280_humidity;BME280_pressure;Samples;Min_cycle;Max_cycle;Signal;HPM_P1;HPM_P2
2022/02/03 00:01:18;;;;;;;58.63;27.85;;;8.70;99.90;;;;;;4900925;29;20460;-92
2022/02/03 00:03:55;;;;;;;55.80;26.40;;;8.80;99.90;;;;;;4905491;29;20195;-93
2022/02/03 00:06:58;;;;;;;47.63;24.35;;;8.40;99.90;;;;;;4894213;29;20663;-93
2022/02/03 00:09:57;;;;;;;47.33;22.97;;;8.70;99.90;;;;;;4911145;29;20199;-91
2022/02/03 00:23:07;;;;;;;51.40;24.90;;;8.90;99.90;;;;;;4919056;29;20984;-92
2022/02/03 00:25:45;;;;;;;50.00;23.33;;;8.80;99.90;;;;;;4914055;29;20586;-91
2022/02/03 00:28:27;;;;;;;39.73;21.93;;;8.70;99.90;;;;;;4901565;29;20506;-91
2022/02/03 00:36:14;;;;;;;47.67;23.77;;;8.90;99.90;;;;;;4922061;29;20519;-91
2022/02/03 00:48:17;;;;;;;47.97;22.80;;;8.90;99.90;;;;;;4903340;29;20559;-91
2022/02/03 00:52:37;;;;;;;43.05;22.38;;;9.10;99.90;;;;;;4904204;29;20619;-91
2022/02/03 00:55:06;;;;;;;37.47;21.75;;;9.00;99.90;;;;;;4899969;29;20766;-91
2022/02/03 00:57:48;;;;;;;48.90;23.10;;;8.90;99.90;;;;;;4900115;29;20215;-90
2022/02/03 01:00:16;;;;;;;36.88;19.58;;;9.20;99.90;;;;;;4914498;29;20625;-92
2022/02/03 01:03:06;;;;;;;44.40;21.55;;;9.00;99.90;;;;;;4899915;29;20199;-91
2022/02/03 01:05:34;;;;;;;40.70;21.80;;;8.80;99.90;;;;;;4888592;29;20271;-91
2022/02/03 01:08:15;;;;;;;44.10;22.60;;;8.90;99.90;;;;;;4919231;29;20200;-93
2022/02/03 01:10:50;;;;;;;36.58;19.73;;;9.10;99.90;;;;;;4900691;29;20440;-88
2022/02/03 01:13:49;;;;;;;39.45;21.15;;;9.00;99.90;;;;;;4895158;29;20195;-88
2022/02/03 01:44:22;;;;;;;35.10;21.60;;;8.90;99.90;;;;;;4911799;29;20443;-88
2022/02/03 01:47:05;;;;;;;39.80;24.20;;;8.90;99.90;;;;;;4910341;29;20427;-89
2022/02/03 01:51:37;;;;;;;42.33;23.15;;;9.00;99.90;;;;;;4911219;29;20671;-89
2022/02/03 01:52:39;;;;;;;39.05;21.73;;;9.10;99.90;;;;;;4911443;29;20203;-88
2022/02/03 01:55:12;;;;;;;45.93;22.53;;;8.90;99.90;;;;;;4917339;29;20708;-88
2022/02/03 01:58:17;;;;;;;45.97;22.07;;;8.80;99.90;;;;;;4903799;29;20474;-88
2022/02/03 02:00:56;;;;;;;40.88;22.38;;;8.90;99.90;;;;;;4859163;29;20442;-88
2022/02/03 02:03:37;;;;;;;42.30;22.55;;;8.80;99.90;;;;;;4869999;29;20761;-89
2022/02/03 02:06:22;;;;;;;40.92;21.83;;;9.10;99.90;;;;;;4877925;29;20168;-90
2022/02/03 02:09:12;;;;;;;42.60;22.43;;;9.10;99.90;;;;;;4879439;29;20236;-89
2022/02/03 02:12:52;;;;;;;41.92;21.58;;;9.10;99.90;;;;;;4878363;29;20557;-88
2022/02/03 02:18:22;;;;;;;41.23;23.70;;;8.90;99.90;;;;;;4902844;29;20238;-89
2022/02/03 02:38:12;;;;;;;41.77;24.30;;;9.00;99.90;;;;;;4908542;29;20483;-89
2022/02/03 02:42:24;;;;;;;47.73;24.60;;;9.00;99.90;;;;;;4899988;29;20570;-89
2022/02/03 02:43:57;;;;;;;46.20;21.77;;;8.80;99.90;;;;;;4887678;29;20468;-89
2022/02/03 02:46:44;;;;;;;39.80;24.37;;;8.90;99.90;;;;;;4897253;29;20448;-88
2022/02/03 02:49:33;;;;;;;40.53;24.10;;;9.00;99.90;;;;;;4890561;29;20508;-88
2022/02/03 02:52:10;;;;;;;46.83;25.17;;;9.20;99.90;;;;;;4882615;29;20469;-89
2022/02/03 03:35:56;;;;;;;49.90;27.90;;;9.10;99.90;;;;;;4911499;29;20354;-88
2022/02/03 03:38:29;;;;;;;50.58;22.27;;;8.80;99.90;;;;;;4903629;29;20462;-88
2022/02/03 03:40:57;;;;;;;51.03;26.90;;;8.70;99.90;;;;;;4912745;29;20204;-88
2022/02/03 03:43:48;;;;;;;42.58;22.85;;;8.70;99.90;;;;;;4910748;29;20413;-88
2022/02/03 03:46:38;;;;;;;43.67;23.05;;;8.80;99.90;;;;;;4910057;29;20200;-89
2022/02/03 03:49:21;;;;;;;55.58;27.83;;;8.70;99.90;;;;;;4908490;29;20188;-90
2022/02/03 03:51:48;;;;;;;39.17;22.23;;;8.80;99.90;;;;;;4887488;29;20195;-88
2022/02/03 03:54:28;;;;;;;40.67;23.33;;;8.90;99.90;;;;;;4892358;29;20312;-89
2022/02/03 03:57:13;;;;;;;42.15;23.95;;;8.70;99.90;;;;;;4894339;29;20319;-88
2022/02/03 04:43:46;;;;;;;21.48;14.38;;;8.50;99.90;;;;;;4930127;29;20192;-88
2022/02/03 05:02:08;;;;;;;25.05;16.38;;;8.40;99.90;;;;;;4893543;29;20194;-89
2022/02/03 05:05:27;;;;;;;19.08;12.50;;;8.50;99.90;;;;;;4901788;29;20223;-88
2022/02/03 05:08:22;;;;;;;17.05;10.68;;;8.50;99.90;;;;;;4889796;29;20824;-88
2022/02/03 05:11:38;;;;;;;14.87;10.23;;;8.20;99.90;;;;;;4922191;29;20227;-88
2022/02/03 05:33:14;;;;;;;16.48;10.55;;;8.20;99.90;;;;;;4913648;29;20250;-89
2022/02/03 05:45:03;;;;;;;9.45;8.52;;;8.30;99.90;;;;;;4904330;29;20230;-88
2022/02/03 05:55:32;;;;;;;17.90;11.32;;;7.70;99.90;;;;;;4914268;29;20295;-88
2022/02/03 06:01:55;;;;;;;9.30;8.32;;;8.50;99.90;;;;;;4911233;29;20729;-88
2022/02/03 06:17:15;;;;;;;9.95;8.90;;;8.10;99.90;;;;;;4912738;29;20224;-88
2022/02/03 06:22:52;;;;;;;10.73;8.20;;;8.00;99.90;;;;;;4912704;29;20303;-88
2022/02/03 06:29:18;;;;;;;13.18;9.80;;;8.30;99.90;;;;;;4913455;29;20509;-87
2022/02/03 06:32:43;;;;;;;12.70;9.07;;;8.20;99.90;;;;;;4910228;29;20239;-88
2022/02/03 06:35:29;;;;;;;13.40;9.50;;;7.90;99.90;;;;;;4900210;29;20641;-87
2022/02/03 06:37:54;;;;;;;11.03;10.00;;;8.20;99.90;;;;;;4894528;29;20315;-89
2022/02/03 06:40:20;;;;;;;11.70;8.03;;;8.20;99.90;;;;;;4910092;29;20219;-89
2022/02/03 06:42:46;;;;;;;11.47;10.37;;;8.10;99.90;;;;;;4910685;29;20208;-88
2022/02/03 06:45:28;;;;;;;;;;;;;;;;;;;;;
2022/02/03 06:48:02;;;;;;;12.60;11.17;;;8.30;99.90;;;;;;4889220;29;20278;-89
2022/02/03 06:50:34;;;;;;;15.10;10.50;;;8.30;99.90;;;;;;4900186;29;20957;-88
2022/02/03 06:53:07;;;;;;;12.27;10.10;;;8.30;99.90;;;;;;4880661;29;20188;-88
2022/02/03 06:58:29;;;;;;;15.48;11.18;;;8.10;99.90;;;;;;4899792;29;20231;-89
2022/02/03 07:01:02;;;;;;;15.10;11.65;;;8.30;99.90;;;;;;4890985;29;20193;-89
2022/02/03 07:03:33;;;;;;;11.38;8.38;;;8.20;99.90;;;;;;4904956;29;20266;-89
2022/02/03 07:05:58;;;;;;;14.18;11.00;;;8.00;99.90;;;;;;4930283;29;20205;-88
2022/02/03 07:08:25;;;;;;;17.43;12.33;;;8.10;99.90;;;;;;4913660;29;20525;-89
2022/02/03 07:10:54;;;;;;;12.00;10.10;;;8.10;99.90;;;;;;4894009;29;20619;-88
2022/02/03 07:13:20;;;;;;;15.35;10.93;;;8.40;99.90;;;;;;4910453;29;20194;-89
2022/02/03 07:15:46;;;;;;;17.37;12.77;;;8.00;99.90;;;;;;4911773;29;20184;-90
2022/02/03 07:18:14;;;;;;;15.80;11.40;;;8.00;99.90;;;;;;4912267;29;20244;-89
2022/02/03 07:20:41;;;;;;;17.80;12.13;;;8.20;99.90;;;;;;4896321;29;20801;-89
2022/02/03 07:23:09;;;;;;;14.25;11.70;;;8.00;99.90;;;;;;4925801;29;20210;-89
2022/02/03 07:25:36;;;;;;;17.85;12.23;;;8.00;99.90;;;;;;4919716;29;20182;-90
2022/02/03 07:28:02;;;;;;;14.50;12.07;;;8.10;99.90;;;;;;4926123;29;20207;-87
2022/02/03 07:30:30;;;;;;;24.67;12.95;;;8.00;99.90;;;;;;4920204;29;20438;-87
2022/02/03 07:32:59;;;;;;;19.02;13.13;;;8.10;99.90;;;;;;4906336;29;20251;-88
2022/02/03 07:35:28;;;;;;;18.40;12.70;;;8.00;99.90;;;;;;4897755;29;20199;-89
2022/02/03 07:37:56;;;;;;;23.75;13.70;;;8.00;99.90;;;;;;4912119;29;20478;-88
2022/02/03 07:40:23;;;;;;;16.33;14.05;;;8.00;99.90;;;;;;4912648;29;20271;-88
2022/02/03 07:42:50;;;;;;;18.13;13.50;;;8.10;99.90;;;;;;4901831;29;20195;-88
2022/02/03 07:45:19;;;;;;;18.85;13.00;;;8.10;99.90;;;;;;4929238;29;20176;-88
2022/02/03 07:47:49;;;;;;;17.20;12.05;;;8.10;99.90;;;;;;4919134;29;20242;-88
2022/02/03 07:50:16;;;;;;;19.50;12.40;;;8.10;99.90;;;;;;4910427;29;20196;-88
2022/02/03 07:52:43;;;;;;;23.83;14.15;;;8.10;99.90;;;;;;4918357;29;20595;-89
2022/02/03 07:55:09;;;;;;;16.17;13.43;;;8.00;99.90;;;;;;4919361;29;20656;-87
2022/02/03 07:57:35;;;;;;;18.17;11.43;;;8.00;99.90;;;;;;4904668;29;20243;-88
2022/02/03 08:00:04;;;;;;;17.50;13.63;;;8.10;99.90;;;;;;4919675;29;20223;-88
2022/02/03 08:02:31;;;;;;;24.15;14.48;;;8.00;99.90;;;;;;4896641;29;20203;-88
2022/02/03 08:05:37;;;;;;;20.20;14.10;;;8.00;99.90;;;;;;4911279;29;20219;-88
2022/02/03 08:09:10;;;;;;;18.33;14.48;;;8.00;99.90;;;;;;4906610;29;20254;-87
2022/02/03 08:12:32;;;;;;;20.02;13.77;;;7.80;99.90;;;;;;4910575;29;20203;-87
2022/02/03 08:16:01;;;;;;;20.10;14.70;;;8.20;99.90;;;;;;4910303;29;20207;-87
2022/02/03 08:19:27;;;;;;;18.90;13.70;;;7.90;99.90;;;;;;4906776;29;20239;-88
2022/02/03 08:22:56;;;;;;;14.85;11.20;;;8.10;99.90;;;;;;4904487;29;20191;-87
2022/02/03 08:26:27;;;;;;;18.88;13.10;;;8.10;99.90;;;;;;4914539;29;20259;-88
2022/02/03 08:33:04;;;;;;;19.48;12.55;;;8.30;99.90;;;;;;4911231;29;20276;-87
2022/02/03 08:36:33;;;;;;;22.80;12.90;;;8.20;99.90;;;;;;4916517;29;20196;-89
2022/02/03 08:39:57;;;;;;;13.73;12.07;;;8.80;99.90;;;;;;4914305;29;20632;-89
2022/02/03 08:43:19;;;;;;;18.10;10.65;;;8.10;99.90;;;;;;4906458;29;20298;-89
2022/02/03 08:46:44;;;;;;;16.00;10.15;;;8.00;99.90;;;;;;4913679;29;20215;-88
2022/02/03 08:50:09;;;;;;;17.77;13.15;;;7.90;99.90;;;;;;4921395;29;20389;-88
2022/02/03 08:53:46;;;;;;;16.42;13.45;;;8.10;99.90;;;;;;4909014;29;20195;-88
2022/02/03 08:57:17;;;;;;;16.80;12.55;;;8.00;99.90;;;;;;4917350;29;20238;-88
2022/02/03 09:28:05;;;;;;;13.93;11.20;;;8.10;99.90;;;;;;4923587;29;20238;-90
2022/02/03 09:58:19;;;;;;;10.18;8.77;;;7.90;99.90;;;;;;4919705;29;20667;-88
2022/02/03 10:01:55;;;;;;;13.57;10.90;;;7.90;99.90;;;;;;4907918;29;20218;-90
2022/02/03 10:05:24;;;;;;;13.75;10.00;;;8.10;99.90;;;;;;4921148;29;20226;-89
2022/02/03 10:08:41;;;;;;;13.15;10.10;;;8.40;99.90;;;;;;4919218;29;20187;-89
2022/02/03 10:12:07;;;;;;;13.40;10.25;;;7.70;99.90;;;;;;4918266;29;20191;-89
2022/02/03 10:15:32;;;;;;;14.98;10.27;;;8.10;99.90;;;;;;4927202;29;20290;-88
2022/02/03 10:19:03;;;;;;;12.98;8.63;;;8.30;99.90;;;;;;4917503;29;20298;-89
2022/02/03 10:22:35;;;;;;;15.98;11.63;;;8.10;99.90;;;;;;4934388;29;20697;-90
2022/02/03 10:26:00;;;;;;;13.75;10.98;;;8.20;99.90;;;;;;4917233;29;20191;-91
2022/02/03 10:29:39;;;;;;;8.65;7.45;;;8.00;99.90;;;;;;4911864;29;20203;-89
2022/02/03 10:33:00;;;;;;;6.80;5.97;;;8.10;99.90;;;;;;4907254;29;20195;-89
2022/02/03 10:36:26;;;;;;;9.65;8.68;;;8.10;99.90;;;;;;4919894;29;20639;-88
2022/02/03 10:40:19;;;;;;;11.70;9.35;;;8.00;99.90;;;;;;4916487;29;20226;-88
2022/02/03 10:43:39;;;;;;;10.32;9.50;;;8.50;99.90;;;;;;4914878;29;20300;-89
2022/02/03 11:04:30;;;;;;;11.70;8.13;;;8.30;99.90;;;;;;4924645;29;20775;-88
2022/02/03 11:10:57;;;;;;;7.63;6.10;;;7.90;99.90;;;;;;4912587;29;20347;-88
2022/02/03 11:14:17;;;;;;;6.78;6.28;;;8.30;99.90;;;;;;4908080;29;20220;-88
2022/02/03 11:17:43;;;;;;;6.63;6.13;;;8.30;99.90;;;;;;4904452;29;20227;-88
2022/02/03 11:21:08;;;;;;;7.43;6.83;;;7.90;99.90;;;;;;4575483;29;10000203;-89
2022/02/03 11:24:43;;;;;;;7.90;6.60;;;8.00;99.90;;;;;;4915575;29;20428;-87
2022/02/03 11:31:26;;;;;;;7.38;6.85;;;8.20;99.90;;;;;;4915075;29;20286;-89
2022/02/03 11:37:56;;;;;;;149.60;83.20;;;8.00;99.90;;;;;;4910841;29;20219;-88
2022/02/03 11:41:36;;;;;;;6.72;6.30;;;8.00;99.90;;;;;;4910271;29;20200;-88
2022/02/03 11:48:51;;;;;;;6.25;5.82;;;8.10;99.90;;;;;;4835956;29;20639;-88
2022/02/03 11:52:17;;;;;;;3.78;2.35;;;8.10;99.90;;;;;;4911879;29;20208;-88
2022/02/03 11:56:14;;;;;;;5.35;4.95;;;8.10;99.90;;;;;;4907541;29;20207;-89
2022/02/03 11:59:35;;;;;;;5.03;4.68;;;7.80;99.90;;;;;;4907639;29;20806;-90
2022/02/03 12:15:18;;;;;;;5.95;5.65;;;7.80;99.90;;;;;;4900687;29;20204;-88
2022/02/03 12:18:41;;;;;;;5.10;4.90;;;7.80;99.90;;;;;;4912356;29;20228;-88
2022/02/03 12:21:51;;;;;;;5.65;5.20;;;7.90;99.90;;;;;;4911282;29;20215;-88
2022/02/03 12:28:52;;;;;;;5.85;5.45;;;8.30;99.90;;;;;;4877076;29;20492;-88
2022/02/03 12:38:50;;;;;;;5.50;5.03;;;7.80;99.90;;;;;;4912578;29;20247;-89
2022/02/03 12:45:35;;;;;;;6.07;5.63;;;7.90;99.90;;;;;;4910255;29;20184;-87
2022/02/03 12:49:04;;;;;;;6.32;5.93;;;7.60;99.90;;;;;;4913278;29;20212;-88
2022/02/03 12:52:38;;;;;;;5.07;4.78;;;7.60;99.90;;;;;;4913660;29;20214;-87
2022/02/03 12:56:19;;;;;;;17.55;5.25;;;7.70;99.90;;;;;;4910613;29;20196;-88
2022/02/03 12:59:47;;;;;;;5.82;5.53;;;7.80;99.90;;;;;;4911532;29;20230;-87
2022/02/03 13:03:10;;;;;;;7.18;6.57;;;7.80;99.90;;;;;;4911048;29;20603;-88
2022/02/03 13:06:40;;;;;;;6.43;6.03;;;7.80;99.90;;;;;;4908676;29;20196;-88
2022/02/03 13:10:04;;;;;;;4.95;4.65;;;7.80;99.90;;;;;;4910730;29;20211;-86
2022/02/03 13:13:39;;;;;;;4.65;4.35;;;7.90;99.90;;;;;;4925431;29;20251;-90
2022/02/03 13:17:18;;;;;;;6.82;6.22;;;7.70;99.90;;;;;;4928652;29;20184;-91
2022/02/03 13:21:17;;;;;;;6.63;6.10;;;7.70;99.90;;;;;;4932833;29;20291;-89
2022/02/03 13:24:47;;;;;;;5.00;4.60;;;7.90;99.90;;;;;;4934134;29;20335;-92
2022/02/03 13:28:13;;;;;;;4.80;4.50;;;7.70;99.90;;;;;;4932181;29;20192;-93
2022/02/03 13:31:43;;;;;;;5.80;4.30;;;7.90;99.90;;;;;;4929370;29;20700;-92
2022/02/03 13:35:07;;;;;;;2.75;2.65;;;7.90;99.90;;;;;;4928468;29;20196;-92
2022/02/03 13:41:59;;;;;;;5.60;5.18;;;8.10;99.90;;;;;;4924949;29;20198;-91
2022/02/03 13:45:24;;;;;;;6.10;5.53;;;7.60;99.90;;;;;;4923646;29;20204;-90
2022/02/03 13:48:53;;;;;;;5.90;5.50;;;7.70;99.90;;;;;;4912107;29;20223;-91
2022/02/03 13:52:21;;;;;;;4.57;4.38;;;7.80;99.90;;;;;;4921266;29;20215;-91
2022/02/03 14:13:50;;;;;;;4.88;4.60;;;7.80;99.90;;;;;;4917543;29;20195;-91
2022/02/03 14:29:54;;;;;;;6.23;5.90;;;7.90;99.90;;;;;;4907934;29;20203;-91
2022/02/03 14:33:31;;;;;;;6.80;6.30;;;7.90;99.90;;;;;;4905152;29;20440;-94
2022/02/03 14:36:57;;;;;;;8.10;6.38;;;7.80;99.90;;;;;;4922689;29;20630;-93
2022/02/03 14:40:28;;;;;;;5.60;5.15;;;7.90;99.90;;;;;;4920791;29;20282;-91
2022/02/03 14:43:39;;;;;;;7.07;6.53;;;7.90;99.90;;;;;;4923053;29;20234;-93
2022/02/03 14:47:07;;;;;;;4.18;3.97;;;8.00;99.90;;;;;;4924934;29;20199;-92
2022/02/03 14:50:36;;;;;;;6.47;6.07;;;8.00;99.90;;;;;;4931258;29;20302;-94
2022/02/03 15:00:40;;;;;;;5.85;5.30;;;8.00;99.90;;;;;;4918875;29;20249;-91
2022/02/03 15:04:08;;;;;;;5.15;4.85;;;7.90;99.90;;;;;;4914207;29;20187;-91
2022/02/03 15:07:33;;;;;;;6.03;5.53;;;8.00;99.90;;;;;;4919879;29;20200;-90
2022/02/03 15:11:06;;;;;;;6.60;6.13;;;7.90;99.90;;;;;;4920894;29;20349;-89
2022/02/03 15:14:27;;;;;;;5.32;4.85;;;7.80;99.90;;;;;;4916869;29;20200;-93
2022/02/03 15:18:01;;;;;;;7.95;5.90;;;7.80;99.90;;;;;;4911410;29;20397;-86
2022/02/03 15:21:25;;;;;;;6.25;5.75;;;7.80;99.90;;;;;;4913144;29;20192;-93
2022/02/03 15:24:50;;;;;;;6.60;6.00;;;7.80;99.90;;;;;;4916163;29;20271;-93
2022/02/03 15:28:17;;;;;;;9.88;4.95;;;7.80;99.90;;;;;;4915417;29;20196;-90
2022/02/03 15:31:47;;;;;;;6.13;5.63;;;7.80;99.90;;;;;;4922901;29;20251;-91
2022/02/03 15:38:56;;;;;;;6.50;6.00;;;7.80;99.90;;;;;;4843407;29;20646;-92
2022/02/03 15:42:26;;;;;;;7.47;6.68;;;7.80;99.90;;;;;;4916384;29;20203;-90
2022/02/03 15:45:50;;;;;;;6.57;6.10;;;7.80;99.90;;;;;;4913094;29;20195;-92
2022/02/03 16:03:11;;;;;;;6.43;5.93;;;8.00;99.90;;;;;;4916305;29;20263;-89
2022/02/03 16:17:42;;;;;;;6.20;5.90;;;;;;;;;;4927725;29;20219;-86
2022/02/03 16:20:23;;;;;;;6.88;6.47;;;7.70;99.90;;;;;;4935673;29;20187;-86
2022/02/03 16:23:17;;;;;;;6.40;5.57;;;7.70;99.90;;;;;;4933534;29;20198;-89
2022/02/03 16:50:49;;;;;;;8.45;6.90;;;7.60;99.90;;;;;;4938225;29;20259;-81
2022/02/03 16:53:15;;;;;;;7.50;6.90;;;7.50;99.90;;;;;;4919884;29;21502;-82
2022/02/03 16:55:44;;;;;;;10.50;7.23;;;7.60;99.90;;;;;;4944005;29;20210;-87
2022/02/03 16:58:11;;;;;;;12.10;9.02;;;7.70;99.90;;;;;;4926474;29;20482;-84
2022/02/03 17:00:37;;;;;;;14.68;8.98;;;7.60;99.90;;;;;;4921037;29;20230;-86
2022/02/03 17:03:04;;;;;;;9.25;7.03;;;7.50;99.90;;;;;;4923030;29;20229;-81
2022/02/03 17:05:33;;;;;;;9.15;8.25;;;7.60;99.90;;;;;;4922314;29;20263;-83
2022/02/03 17:07:59;;;;;;;9.45;8.60;;;7.60;99.90;;;;;;4925561;29;20215;-80
2022/02/03 17:10:25;;;;;;;11.27;8.40;;;7.60;99.90;;;;;;4903273;29;20694;-84
2022/02/03 17:12:51;;;;;;;9.30;7.93;;;7.60;99.90;;;;;;4917159;29;20224;-83
2022/02/03 17:15:20;;;;;;;9.07;8.15;;;7.60;99.90;;;;;;4923166;29;20231;-88
2022/02/03 17:17:52;;;;;;;8.25;7.70;;;7.60;99.90;;;;;;4900137;29;20231;-85
2022/02/03 17:20:20;;;;;;;9.57;8.70;;;7.70;99.90;;;;;;4895417;29;20203;-86
2022/02/03 17:22:50;;;;;;;10.02;8.85;;;7.40;99.90;;;;;;4924935;29;20195;-84
2022/02/03 17:26:07;;;;;;;11.75;8.15;;;7.60;99.90;;;;;;4900042;29;20674;-82
2022/02/03 17:28:31;;;;;;;10.02;8.00;;;7.70;99.90;;;;;;4908273;29;20235;-81
2022/02/03 17:31:07;;;;;;;10.35;9.25;;;7.10;99.90;;;;;;4902083;29;20200;-84
2022/02/03 18:31:55;;;;;;;14.20;10.95;;;7.10;99.90;;;;;;4920299;29;20210;-87
2022/02/03 18:55:09;;;;;;;19.57;12.40;;;6.90;99.90;;;;;;4908943;29;20203;-84
2022/02/03 18:57:52;;;;;;;14.43;12.38;;;7.40;99.90;;;;;;4891896;29;20631;-84
2022/02/03 19:25:00;;;;;;;13.02;11.43;;;6.90;99.90;;;;;;4903549;29;20191;-84
2022/02/03 20:08:02;;;;;;;20.83;16.40;;;6.90;99.90;;;;;;4902779;29;20567;-84
2022/02/03 20:10:44;;;;;;;26.50;18.30;;;7.40;99.90;;;;;;4887742;29;20204;-85
2022/02/03 20:13:10;;;;;;;25.15;18.05;;;6.90;99.90;;;;;;4904443;29;20769;-84
2022/02/03 20:15:39;;;;;;;20.47;14.43;;;6.80;99.90;;;;;;4911285;29;20199;-84
2022/02/03 20:18:06;;;;;;;25.30;16.73;;;6.90;99.90;;;;;;4909158;29;20339;-83
2022/02/03 20:20:33;;;;;;;25.75;19.50;;;6.80;99.90;;;;;;4916293;29;20231;-83
2022/02/03 20:23:01;;;;;;;25.23;19.10;;;6.90;99.90;;;;;;4906737;29;20175;-84
2022/02/03 20:25:28;;;;;;;27.90;16.42;;;6.80;99.90;;;;;;4901865;29;20188;-83
2022/02/03 20:27:54;;;;;;;23.58;16.90;;;6.80;99.90;;;;;;4892609;29;20572;-84
2022/02/03 20:30:19;;;;;;;24.60;17.93;;;6.80;99.90;;;;;;4891779;29;20192;-84
2022/02/03 20:32:45;;;;;;;29.30;20.80;;;6.80;99.90;;;;;;4901730;29;21123;-86
2022/02/03 20:35:11;;;;;;;28.60;18.10;;;6.80;99.90;;;;;;4892892;29;20230;-84
2022/02/03 20:37:38;;;;;;;27.70;18.47;;;6.80;99.90;;;;;;4902605;29;20524;-84
2022/02/03 20:40:04;;;;;;;25.60;16.60;;;6.70;99.90;;;;;;4885751;29;20448;-84
2022/02/03 20:42:30;;;;;;;34.42;20.35;;;6.00;99.90;;;;;;4892963;29;20429;-83
2022/02/03 20:44:56;;;;;;;21.33;16.73;;;6.80;99.90;;;;;;4912866;29;20615;-85
2022/02/03 20:47:24;;;;;;;33.95;20.70;;;6.80;99.90;;;;;;4903161;29;20191;-84
2022/02/03 20:49:50;;;;;;;25.13;19.77;;;6.70;99.90;;;;;;4885004;29;20196;-83
2022/02/03 20:52:18;;;;;;;23.93;16.50;;;6.70;99.90;;;;;;4887583;29;20201;-83
2022/02/03 20:54:45;;;;;;;21.08;16.92;;;6.90;99.90;;;;;;4898070;29;20218;-83
2022/02/03 20:57:11;;;;;;;25.95;17.60;;;6.90;99.90;;;;;;4888899;29;20238;-83
2022/02/03 21:02:46;;;;;;;25.05;17.60;;;6.90;99.90;;;;;;4907813;29;20180;-86
2022/02/03 21:05:16;;;;;;;32.88;20.48;;;6.90;99.90;;;;;;4892865;29;20239;-81
2022/02/03 21:07:44;;;;;;;24.30;17.55;;;6.90;99.90;;;;;;4911093;29;20275;-84
2022/02/03 21:10:15;;;;;;;29.85;19.80;;;6.90;99.90;;;;;;4887458;29;20578;-84
2022/02/03 21:12:41;;;;;;;26.05;17.50;;;6.80;99.90;;;;;;4893430;29;20228;-85
2022/02/03 21:15:09;;;;;;;34.22;18.60;;;8.30;99.90;;;;;;4889251;29;20208;-86
2022/02/03 21:17:35;;;;;;;23.42;15.30;;;7.00;99.90;;;;;;4899818;29;20290;-85
2022/02/03 21:20:14;;;;;;;22.58;17.27;;;7.00;99.90;;;;;;4888006;29;20333;-86
2022/02/03 21:22:40;;;;;;;29.75;20.35;;;7.00;99.90;;;;;;4895509;29;20595;-86
2022/02/03 21:25:31;;;;;;;24.48;17.77;;;7.00;99.90;;;;;;4907321;29;20519;-85
2022/02/03 21:28:03;;;;;;;28.13;21.77;;;6.90;99.90;;;;;;4909518;29;20188;-84
2022/02/03 21:30:30;;;;;;;23.20;16.77;;;6.90;99.90;;;;;;4913888;29;20600;-85
2022/02/03 21:32:55;;;;;;;26.48;18.45;;;7.00;99.90;;;;;;4913156;29;20191;-86
2022/02/03 21:35:23;;;;;;;28.30;19.53;;;7.00;99.90;;;;;;4914878;29;20496;-85
2022/02/03 21:37:51;;;;;;;24.95;17.75;;;6.90;99.90;;;;;;4898385;29;20591;-86
2022/02/03 21:40:19;;;;;;;27.55;16.58;;;6.90;99.90;;;;;;4905796;29;20243;-85
2022/02/03 21:42:45;;;;;;;24.92;16.83;;;6.90;99.90;;;;;;4911171;29;20223;-85
2022/02/03 21:45:11;;;;;;;22.27;14.87;;;7.00;99.90;;;;;;4918049;29;20204;-85
2022/02/03 21:47:40;;;;;;;24.73;17.02;;;7.00;99.90;;;;;;4923966;29;20437;-85
2022/02/03 21:50:06;;;;;;;29.75;20.08;;;7.00;99.90;;;;;;4904129;29;20212;-85
2022/02/03 21:52:38;;;;;;;27.60;17.35;;;7.00;99.90;;;;;;4920709;29;20260;-85
2022/02/03 21:55:07;;;;;;;23.80;16.25;;;7.10;99.90;;;;;;4898553;29;20280;-85
2022/02/03 21:57:33;;;;;;;26.05;16.35;;;7.00;99.90;;;;;;4915258;29;20319;-85
2022/02/03 22:00:00;;;;;;;27.45;18.05;;;7.00;99.90;;;;;;4918552;29;20195;-85
2022/02/03 22:02:26;;;;;;;21.70;15.43;;;6.90;99.90;;;;;;4912531;29;20432;-86
2022/02/03 22:04:53;;;;;;;24.77;16.40;;;7.00;99.90;;;;;;4896723;29;20302;-86
2022/02/03 22:07:19;;;;;;;24.27;17.20;;;7.10;99.90;;;;;;4914418;29;20881;-86
2022/02/03 22:09:45;;;;;;;24.23;16.33;;;7.00;99.90;;;;;;4894353;29;20200;-84
2022/02/03 22:12:11;;;;;;;28.90;19.90;;;7.10;99.90;;;;;;4904272;29;20737;-84
2022/02/03 22:14:36;;;;;;;28.77;21.30;;;7.00;99.90;;;;;;4902963;29;20275;-85
2022/02/03 22:17:02;;;;;;;25.40;19.30;;;6.80;99.90;;;;;;4919921;29;20212;-84
2022/02/03 22:19:29;;;;;;;32.33;20.17;;;6.90;99.90;;;;;;4912490;29;20192;-84
2022/02/03 22:49:02;;;;;;;28.02;18.98;;;6.80;99.90;;;;;;4913573;29;20208;-86
2022/02/03 22:51:28;;;;;;;30.35;19.75;;;7.10;99.90;;;;;;4922982;29;20180;-85
2022/02/03 22:53:54;;;;;;;33.87;21.17;;;6.90;99.90;;;;;;4913620;29;20199;-86
2022/02/03 22:56:19;;;;;;;31.00;20.90;;;6.90;99.90;;;;;;4918128;29;20184;-86
2022/02/03 23:01:14;;;;;;;27.23;19.67;;;6.80;99.90;;;;;;4918056;29;20677;-85
2022/02/03 23:03:40;;;;;;;35.57;20.30;;;7.00;99.90;;;;;;4902740;29;20200;-84
2022/02/03 23:06:07;;;;;;;30.38;21.52;;;6.90;99.90;;;;;;4902071;29;20185;-85
2022/02/03 23:19:17;;;;;;;31.30;20.43;;;7.00;99.90;;;;;;4918331;29;20262;-85
2022/02/03 23:21:50;;;;;;;24.33;18.90;;;7.20;99.90;;;;;;4908415;29;20424;-84
2022/02/03 23:24:18;;;;;;;25.00;20.13;;;7.10;99.90;;;;;;4899135;29;20204;-85
2022/02/03 23:26:47;;;;;;;28.98;19.50;;;6.90;99.90;;;;;;4906744;29;20249;-85
2022/02/03 23:29:16;;;;;;;29.10;19.63;;;6.80;99.90;;;;;;4911107;29;20310;-85
2022/02/03 23:32:04;;;;;;;30.92;21.45;;;8.00;99.90;;;;;;4882262;29;20474;-85
2022/02/03 23:34:30;;;;;;;26.98;18.45;;;6.90;99.90;;;;;;4907399;29;20196;-85
2022/02/03 23:36:56;;;;;;;28.03;19.73;;;7.00;99.90;;;;;;4901118;29;20309;-86
2022/02/03 23:39:30;;;;;;;24.57;17.47;;;7.00;99.90;;;;;;4911785;29;20192;-85
2022/02/03 23:51:07;;;;;;;26.42;18.65;;;7.40;99.90;;;;;;4877527;29;20220;-85
